sensor_id;sensor_type;location;lat;lon;timestamp;P1;durP1;ratioP1;P2;durP2;ratioP2
1082;SDS011;530;51.448;7.238;2023-08-12T00:00:32;23.20;;;20.23;;
1082;SDS011;530;51.448;7.238;2023-08-12T00:02:58;20.63;;;18.70;;
1082;SDS011;530;51.448;7.238;2023-08-12T00:05:24;19.83;;;18.03;;
1082;SDS011;530;51.448;7.238;2023-08-12T00:07:50;20.23;;;18.20;;
1082;SDS011;530;51.448;7.238;2023-08-12T00:10:15;22.30;;;20.10;;
1082;SDS011;530;51.448;7.238;2023-08-12T00:12:41;21.33;;;19.23;;
1082;SDS011;530;51.448;7.238;2023-08-12T00:15:08;20.20;;;18.20;;
1082;SDS011;530;51.448;7.238;2023-08-12T00:17:35;22.20;;;20.00;;
1082;SDS011;530;51.448;7.238;2023-08-12T00:20:02;20.03;;;18.07;;
1082;SDS011;530;51.448;7.238;2023-08-12T00:22:33;19.37;;;17.47;;
1082;SDS011;530;51.448;7.238;2023-08-12T00:24:59;21.20;;;18.90;;
1082;SDS011;530;51.448;7.238;2023-08-12T00:27:26;19.60;;;17.60;;
1082;SDS011;530;51.448;7.238;2023-08-12T00:29:51;16.20;;;14.70;;
1082;SDS011;530;51.448;7.238;2023-08-12T00:32:17;17.50;;;15.80;;
1082;SDS011;530;51.448;7.238;2023-08-12T00:34:43;17.70;;;15.97;;
1082;SDS011;530;51.448;7.238;2023-08-12T00:37:09;15.70;;;14.20;;
1082;SDS011;530;51.448;7.238;2023-08-12T00:39:35;15.43;;;13.93;;
1082;SDS011;530;51.448;7.238;2023-08-12T00:42:00;17.30;;;15.60;;
1082;SDS011;530;51.448;7.238;2023-08-12T00:44:26;16.10;;;14.47;;
1082;SDS011;530;51.448;7.238;2023-08-12T00:46:52;17.17;;;15.37;;
1082;SDS011;530;51.448;7.238;2023-08-12T00:49:18;18.73;;;16.90;;
1082;SDS011;530;51.448;7.238;2023-08-12T00:51:44;18.20;;;16.30;;
1082;SDS011;530;51.448;7.238;2023-08-12T00:54:13;20.10;;;17.93;;
1082;SDS011;530;51.448;7.238;2023-08-12T00:56:40;16.20;;;14.57;;
1082;SDS011;530;51.448;7.238;2023-08-12T00:59:07;18.23;;;16.43;;
1082;SDS011;530;51.448;7.238;2023-08-12T01:01:34;18.20;;;16.03;;
1082;SDS011;530;51.448;7.238;2023-08-12T01:04:01;17.80;;;16.10;;
1082;SDS011;530;51.448;7.238;2023-08-12T01:06:26;16.27;;;14.73;;
1082;SDS011;530;51.448;7.238;2023-08-12T01:08:52;17.27;;;14.47;;
1082;SDS011;530;51.448;7.238;2023-08-12T01:14:11;16.87;;;15.27;;
1082;SDS011;530;51.448;7.238;2023-08-12T01:17:02;17.20;;;15.40;;
1082;SDS011;530;51.448;7.238;2023-08-12T01:19:29;17.60;;;14.90;;
1082;SDS011;530;51.448;7.238;2023-08-12T01:22:00;18.43;;;16.40;;
1082;SDS011;530;51.448;7.238;2023-08-12T01:24:27;16.57;;;14.97;;
1082;SDS011;530;51.448;7.238;2023-08-12T01:27:00;17.13;;;15.30;;
1082;SDS011;530;51.448;7.238;2023-08-12T01:29:26;20.53;;;16.87;;
1082;SDS011;530;51.448;7.238;2023-08-12T01:31:54;18.97;;;17.00;;
1082;SDS011;530;51.448;7.238;2023-08-12T01:34:29;22.13;;;17.63;;
1082;SDS011;530;51.448;7.238;2023-08-12T01:37:06;17.77;;;15.90;;
1082;SDS011;530;51.448;7.238;2023-08-12T01:39:35;18.20;;;16.30;;
1082;SDS011;530;51.448;7.238;2023-08-12T01:42:04;20.13;;;18.13;;
1082;SDS011;530;51.448;7.238;2023-08-12T01:44:30;18.30;;;16.40;;
1082;SDS011;530;51.448;7.238;2023-08-12T01:46:56;20.83;;;18.53;;
1082;SDS011;530;51.448;7.238;2023-08-12T01:49:22;21.93;;;19.73;;
1082;SDS011;530;51.448;7.238;2023-08-12T01:51:49;20.07;;;18.07;;
1082;SDS011;530;51.448;7.238;2023-08-12T01:54:15;22.23;;;19.93;;
1082;SDS011;530;51.448;7.238;2023-08-12T01:56:40;20.37;;;18.33;;
1082;SDS011;530;51.448;7.238;2023-08-12T01:59:06;20.67;;;18.47;;
1082;SDS011;530;51.448;7.238;2023-08-12T02:01:32;22.57;;;20.07;;
1082;SDS011;530;51.448;7.238;2023-08-12T02:03:58;21.77;;;19.67;;
1082;SDS011;530;51.448;7.238;2023-08-12T02:06:23;20.20;;;18.13;;
1082;SDS011;530;51.448;7.238;2023-08-12T02:08:49;22.13;;;19.30;;
1082;SDS011;530;51.448;7.238;2023-08-12T02:11:15;20.60;;;18.40;;
1082;SDS011;530;51.448;7.238;2023-08-12T02:13:41;20.53;;;18.33;;
1082;SDS011;530;51.448;7.238;2023-08-12T02:16:07;22.33;;;19.97;;
1082;SDS011;530;51.448;7.238;2023-08-12T02:18:33;22.20;;;19.67;;
1082;SDS011;530;51.448;7.238;2023-08-12T02:20:59;23.40;;;21.03;;
1082;SDS011;530;51.448;7.238;2023-08-12T02:23:24;22.37;;;20.17;;
1082;SDS011;530;51.448;7.238;2023-08-12T02:25:51;20.80;;;18.33;;
1082;SDS011;530;51.448;7.238;2023-08-12T02:28:17;22.43;;;20.10;;
1082;SDS011;530;51.448;7.238;2023-08-12T02:30:43;24.23;;;21.63;;
1082;SDS011;530;51.448;7.238;2023-08-12T02:33:09;23.30;;;19.77;;
1082;SDS011;530;51.448;7.238;2023-08-12T02:35:34;22.87;;;20.40;;
1082;SDS011;530;51.448;7.238;2023-08-12T02:38:00;21.13;;;18.93;;
1082;SDS011;530;51.448;7.238;2023-08-12T02:40:26;21.07;;;18.50;;
1082;SDS011;530;51.448;7.238;2023-08-12T02:42:51;21.10;;;18.97;;
1082;SDS011;530;51.448;7.238;2023-08-12T02:45:17;20.33;;;18.23;;
1082;SDS011;530;51.448;7.238;2023-08-12T02:47:42;20.20;;;18.20;;
1082;SDS011;530;51.448;7.238;2023-08-12T02:50:08;18.90;;;17.10;;
1082;SDS011;530;51.448;7.238;2023-08-12T02:52:34;21.60;;;19.33;;
1082;SDS011;530;51.448;7.238;2023-08-12T02:55:00;21.70;;;18.67;;
1082;SDS011;530;51.448;7.238;2023-08-12T02:57:26;22.30;;;19.03;;
1082;SDS011;530;51.448;7.238;2023-08-12T02:59:51;20.47;;;18.37;;
1082;SDS011;530;51.448;7.238;2023-08-12T03:02:17;20.80;;;18.70;;
1082;SDS011;530;51.448;7.238;2023-08-12T03:04:43;20.63;;;18.43;;
1082;SDS011;530;51.448;7.238;2023-08-12T03:07:09;20.17;;;17.50;;
1082;SDS011;530;51.448;7.238;2023-08-12T03:09:34;17.63;;;15.90;;
1082;SDS011;530;51.448;7.238;2023-08-12T03:12:00;18.23;;;16.37;;
1082;SDS011;530;51.448;7.238;2023-08-12T03:14:28;20.80;;;17.37;;
1082;SDS011;530;51.448;7.238;2023-08-12T03:16:55;20.07;;;17.73;;
1082;SDS011;530;51.448;7.238;2023-08-12T03:19:20;18.50;;;16.60;;
1082;SDS011;530;51.448;7.238;2023-08-12T03:21:46;19.40;;;17.40;;
1082;SDS011;530;51.448;7.238;2023-08-12T03:24:11;19.63;;;17.60;;
1082;SDS011;530;51.448;7.238;2023-08-12T03:26:37;18.63;;;16.13;;
1082;SDS011;530;51.448;7.238;2023-08-12T03:29:03;18.27;;;16.33;;
1082;SDS011;530;51.448;7.238;2023-08-12T03:31:29;17.90;;;16.00;;
1082;SDS011;530;51.448;7.238;2023-08-12T03:33:54;19.90;;;17.80;;
1082;SDS011;530;51.448;7.238;2023-08-12T03:36:20;20.10;;;17.53;;
1082;SDS011;530;51.448;7.238;2023-08-12T03:38:46;19.47;;;17.47;;
1082;SDS011;530;51.448;7.238;2023-08-12T03:41:11;18.93;;;16.93;;
1082;SDS011;530;51.448;7.238;2023-08-12T03:43:37;19.00;;;17.00;;
1082;SDS011;530;51.448;7.238;2023-08-12T03:46:03;18.40;;;16.60;;
1082;SDS011;530;51.448;7.238;2023-08-12T03:48:29;18.80;;;17.00;;
1082;SDS011;530;51.448;7.238;2023-08-12T03:50:54;17.50;;;15.73;;
1082;SDS011;530;51.448;7.238;2023-08-12T03:53:20;19.13;;;17.27;;
1082;SDS011;530;51.448;7.238;2023-08-12T03:55:45;18.13;;;16.30;;
1082;SDS011;530;51.448;7.238;2023-08-12T03:58:11;18.27;;;16.47;;
1082;SDS011;530;51.448;7.238;2023-08-12T04:00:40;19.57;;;17.67;;
1082;SDS011;530;51.448;7.238;2023-08-12T04:03:08;18.50;;;16.57;;
1082;SDS011;530;51.448;7.238;2023-08-12T04:05:34;17.70;;;15.90;;
1082;SDS011;530;51.448;7.238;2023-08-12T04:08:00;17.77;;;15.87;;
1082;SDS011;530;51.448;7.238;2023-08-12T04:10:25;18.37;;;16.20;;
1082;SDS011;530;51.448;7.238;2023-08-12T04:12:51;18.47;;;16.67;;
1082;SDS011;530;51.448;7.238;2023-08-12T04:15:17;18.13;;;16.40;;
1082;SDS011;530;51.448;7.238;2023-08-12T04:17:42;19.10;;;17.20;;
1082;SDS011;530;51.448;7.238;2023-08-12T04:20:09;18.00;;;16.10;;
1082;SDS011;530;51.448;7.238;2023-08-12T04:22:34;18.63;;;15.43;;
1082;SDS011;530;51.448;7.238;2023-08-12T04:25:00;15.33;;;13.83;;
1082;SDS011;530;51.448;7.238;2023-08-12T04:27:27;17.63;;;15.93;;
1082;SDS011;530;51.448;7.238;2023-08-12T04:29:53;15.47;;;13.97;;
1082;SDS011;530;51.448;7.238;2023-08-12T04:32:18;17.03;;;15.23;;
1082;SDS011;530;51.448;7.238;2023-08-12T04:34:45;17.60;;;15.90;;
1082;SDS011;530;51.448;7.238;2023-08-12T04:37:11;15.77;;;14.27;;
1082;SDS011;530;51.448;7.238;2023-08-12T04:39:36;15.77;;;14.37;;
1082;SDS011;530;51.448;7.238;2023-08-12T04:42:02;15.30;;;13.70;;
1082;SDS011;530;51.448;7.238;2023-08-12T04:44:28;15.13;;;13.20;;
1082;SDS011;530;51.448;7.238;2023-08-12T04:46:54;15.60;;;14.17;;
1082;SDS011;530;51.448;7.238;2023-08-12T04:49:19;17.10;;;15.30;;
1082;SDS011;530;51.448;7.238;2023-08-12T04:51:46;15.77;;;14.13;;
1082;SDS011;530;51.448;7.238;2023-08-12T04:54:11;16.00;;;14.30;;
1082;SDS011;530;51.448;7.238;2023-08-12T04:56:37;16.77;;;15.17;;
1082;SDS011;530;51.448;7.238;2023-08-12T04:59:03;15.50;;;14.10;;
1082;SDS011;530;51.448;7.238;2023-08-12T05:01:29;21.83;;;15.20;;
1082;SDS011;530;51.448;7.238;2023-08-12T05:03:54;16.13;;;14.43;;
1082;SDS011;530;51.448;7.238;2023-08-12T05:06:20;16.13;;;14.33;;
1082;SDS011;530;51.448;7.238;2023-08-12T05:08:46;19.50;;;14.50;;
1082;SDS011;530;51.448;7.238;2023-08-12T05:11:11;16.73;;;15.20;;
1082;SDS011;530;51.448;7.238;2023-08-12T05:13:37;16.63;;;14.77;;
1082;SDS011;530;51.448;7.238;2023-08-12T05:16:03;15.47;;;13.90;;
1082;SDS011;530;51.448;7.238;2023-08-12T05:18:28;15.40;;;13.90;;
1082;SDS011;530;51.448;7.238;2023-08-12T05:20:54;15.70;;;14.13;;
1082;SDS011;530;51.448;7.238;2023-08-12T05:23:20;14.53;;;13.23;;
1082;SDS011;530;51.448;7.238;2023-08-12T05:25:46;16.00;;;14.40;;
1082;SDS011;530;51.448;7.238;2023-08-12T05:28:12;15.87;;;14.47;;
1082;SDS011;530;51.448;7.238;2023-08-12T05:30:38;14.50;;;13.20;;
1082;SDS011;530;51.448;7.238;2023-08-12T05:33:04;14.77;;;13.37;;
1082;SDS011;530;51.448;7.238;2023-08-12T05:35:33;14.57;;;13.27;;
1082;SDS011;530;51.448;7.238;2023-08-12T05:37:59;12.70;;;11.50;;
1082;SDS011;530;51.448;7.238;2023-08-12T05:40:25;13.47;;;12.23;;
1082;SDS011;530;51.448;7.238;2023-08-12T05:42:50;12.20;;;11.00;;
1082;SDS011;530;51.448;7.238;2023-08-12T05:45:16;12.60;;;11.10;;
1082;SDS011;530;51.448;7.238;2023-08-12T05:47:42;11.97;;;10.40;;
1082;SDS011;530;51.448;7.238;2023-08-12T05:50:07;11.60;;;10.50;;
1082;SDS011;530;51.448;7.238;2023-08-12T05:52:33;11.40;;;10.40;;
1082;SDS011;530;51.448;7.238;2023-08-12T05:54:59;12.43;;;10.07;;
1082;SDS011;530;51.448;7.238;2023-08-12T05:57:25;11.37;;;9.37;;
1082;SDS011;530;51.448;7.238;2023-08-12T05:59:50;10.10;;;9.10;;
1082;SDS011;530;51.448;7.238;2023-08-12T06:02:16;8.63;;;7.83;;
1082;SDS011;530;51.448;7.238;2023-08-12T06:04:42;9.60;;;8.70;;
1082;SDS011;530;51.448;7.238;2023-08-12T06:07:08;9.70;;;8.70;;
1082;SDS011;530;51.448;7.238;2023-08-12T06:09:33;8.93;;;8.03;;
1082;SDS011;530;51.448;7.238;2023-08-12T06:11:59;10.63;;;8.33;;
1082;SDS011;530;51.448;7.238;2023-08-12T06:14:24;11.17;;;8.50;;
1082;SDS011;530;51.448;7.238;2023-08-12T06:16:50;9.53;;;8.67;;
1082;SDS011;530;51.448;7.238;2023-08-12T06:19:16;9.03;;;8.10;;
1082;SDS011;530;51.448;7.238;2023-08-12T06:21:42;10.73;;;7.77;;
1082;SDS011;530;51.448;7.238;2023-08-12T06:24:07;9.63;;;8.23;;
1082;SDS011;530;51.448;7.238;2023-08-12T06:26:33;11.97;;;8.20;;
1082;SDS011;530;51.448;7.238;2023-08-12T06:28:59;7.13;;;6.43;;
1082;SDS011;530;51.448;7.238;2023-08-12T06:31:24;7.73;;;7.03;;
1082;SDS011;530;51.448;7.238;2023-08-12T06:33:50;8.60;;;7.03;;
1082;SDS011;530;51.448;7.238;2023-08-12T06:36:16;7.93;;;7.13;;
1082;SDS011;530;51.448;7.238;2023-08-12T06:38:41;7.50;;;6.80;;
1082;SDS011;530;51.448;7.238;2023-08-12T06:41:07;9.97;;;7.70;;
1082;SDS011;530;51.448;7.238;2023-08-12T06:43:33;7.90;;;6.87;;
1082;SDS011;530;51.448;7.238;2023-08-12T06:45:58;8.17;;;7.30;;
1082;SDS011;530;51.448;7.238;2023-08-12T06:48:24;7.50;;;6.80;;
1082;SDS011;530;51.448;7.238;2023-08-12T06:50:56;6.70;;;6.20;;
1082;SDS011;530;51.448;7.238;2023-08-12T06:53:22;9.13;;;6.27;;
1082;SDS011;530;51.448;7.238;2023-08-12T06:55:47;7.20;;;6.33;;
1082;SDS011;530;51.448;7.238;2023-08-12T06:58:13;7.07;;;6.23;;
1082;SDS011;530;51.448;7.238;2023-08-12T07:00:42;10.73;;;6.30;;
1082;SDS011;530;51.448;7.238;2023-08-12T07:03:08;8.33;;;6.60;;
1082;SDS011;530;51.448;7.238;2023-08-12T07:05:34;6.73;;;5.50;;
1082;SDS011;530;51.448;7.238;2023-08-12T07:08:00;7.10;;;6.40;;
1082;SDS011;530;51.448;7.238;2023-08-12T07:10:25;6.93;;;6.17;;
1082;SDS011;530;51.448;7.238;2023-08-12T07:12:51;7.17;;;6.07;;
1082;SDS011;530;51.448;7.238;2023-08-12T07:15:16;7.00;;;6.30;;
1082;SDS011;530;51.448;7.238;2023-08-12T07:17:42;7.67;;;5.87;;
1082;SDS011;530;51.448;7.238;2023-08-12T07:20:08;6.63;;;5.93;;
1082;SDS011;530;51.448;7.238;2023-08-12T07:22:34;6.57;;;5.97;;
1082;SDS011;530;51.448;7.238;2023-08-12T07:24:59;7.10;;;5.50;;
1082;SDS011;530;51.448;7.238;2023-08-12T07:27:25;5.70;;;5.07;;
1082;SDS011;530;51.448;7.238;2023-08-12T07:29:52;5.77;;;5.27;;
1082;SDS011;530;51.448;7.238;2023-08-12T07:32:18;5.40;;;4.93;;
1082;SDS011;530;51.448;7.238;2023-08-12T07:34:44;5.30;;;4.90;;
1082;SDS011;530;51.448;7.238;2023-08-12T07:37:10;6.30;;;5.30;;
1082;SDS011;530;51.448;7.238;2023-08-12T07:39:36;5.10;;;4.70;;
1082;SDS011;530;51.448;7.238;2023-08-12T07:42:02;5.20;;;4.80;;
1082;SDS011;530;51.448;7.238;2023-08-12T07:44:28;6.50;;;4.50;;
1082;SDS011;530;51.448;7.238;2023-08-12T07:46:54;4.80;;;4.40;;
1082;SDS011;530;51.448;7.238;2023-08-12T07:49:20;5.93;;;5.33;;
1082;SDS011;530;51.448;7.238;2023-08-12T07:51:46;5.57;;;5.07;;
1082;SDS011;530;51.448;7.238;2023-08-12T07:54:12;5.83;;;5.00;;
1082;SDS011;530;51.448;7.238;2023-08-12T07:56:37;4.97;;;4.47;;
1082;SDS011;530;51.448;7.238;2023-08-12T07:59:03;4.97;;;4.40;;
1082;SDS011;530;51.448;7.238;2023-08-12T08:01:29;4.97;;;4.53;;
1082;SDS011;530;51.448;7.238;2023-08-12T08:03:54;4.37;;;4.03;;
1082;SDS011;530;51.448;7.238;2023-08-12T08:06:21;5.10;;;4.60;;
1082;SDS011;530;51.448;7.238;2023-08-12T08:08:48;4.83;;;4.27;;
1082;SDS011;530;51.448;7.238;2023-08-12T08:11:14;4.40;;;4.00;;
1082;SDS011;530;51.448;7.238;2023-08-12T08:13:40;4.60;;;4.30;;
1082;SDS011;530;51.448;7.238;2023-08-12T08:16:05;4.80;;;4.40;;
1082;SDS011;530;51.448;7.238;2023-08-12T08:18:31;4.60;;;4.30;;
1082;SDS011;530;51.448;7.238;2023-08-12T08:20:57;4.70;;;4.30;;
1082;SDS011;530;51.448;7.238;2023-08-12T08:23:23;5.13;;;4.63;;
1082;SDS011;530;51.448;7.238;2023-08-12T08:25:48;5.40;;;4.90;;
1082;SDS011;530;51.448;7.238;2023-08-12T08:28:14;5.40;;;4.90;;
1082;SDS011;530;51.448;7.238;2023-08-12T08:30:40;6.20;;;5.47;;
1082;SDS011;530;51.448;7.238;2023-08-12T08:33:05;6.90;;;5.33;;
1082;SDS011;530;51.448;7.238;2023-08-12T08:35:31;7.80;;;5.33;;
1082;SDS011;530;51.448;7.238;2023-08-12T08:37:57;5.37;;;4.90;;
1082;SDS011;530;51.448;7.238;2023-08-12T08:40:23;6.50;;;4.90;;
1082;SDS011;530;51.448;7.238;2023-08-12T08:42:51;5.80;;;5.40;;
1082;SDS011;530;51.448;7.238;2023-08-12T08:45:18;6.07;;;5.57;;
1082;SDS011;530;51.448;7.238;2023-08-12T08:47:46;6.40;;;5.90;;
1082;SDS011;530;51.448;7.238;2023-08-12T08:50:13;6.47;;;5.93;;
1082;SDS011;530;51.448;7.238;2023-08-12T08:52:39;7.70;;;7.00;;
1082;SDS011;530;51.448;7.238;2023-08-12T08:55:07;7.60;;;6.90;;
1082;SDS011;530;51.448;7.238;2023-08-12T08:57:33;6.77;;;6.27;;
1082;SDS011;530;51.448;7.238;2023-08-12T08:59:59;7.20;;;6.53;;
1082;SDS011;530;51.448;7.238;2023-08-12T09:02:24;7.50;;;6.77;;
1082;SDS011;530;51.448;7.238;2023-08-12T09:04:51;6.90;;;6.40;;
1082;SDS011;530;51.448;7.238;2023-08-12T09:07:18;7.70;;;7.00;;
1082;SDS011;530;51.448;7.238;2023-08-12T09:09:45;7.13;;;6.43;;
1082;SDS011;530;51.448;7.238;2023-08-12T09:12:13;7.97;;;7.27;;
1082;SDS011;530;51.448;7.238;2023-08-12T09:14:41;7.77;;;6.73;;
1082;SDS011;530;51.448;7.238;2023-08-12T09:17:08;7.90;;;7.20;;
1082;SDS011;530;51.448;7.238;2023-08-12T09:19:34;7.57;;;6.97;;
1082;SDS011;530;51.448;7.238;2023-08-12T09:22:00;7.00;;;6.40;;
1082;SDS011;530;51.448;7.238;2023-08-12T09:24:28;7.33;;;6.60;;
1082;SDS011;530;51.448;7.238;2023-08-12T09:26:54;8.33;;;7.13;;
1082;SDS011;530;51.448;7.238;2023-08-12T09:29:25;6.90;;;6.40;;
1082;SDS011;530;51.448;7.238;2023-08-12T09:32:04;6.30;;;5.90;;
1082;SDS011;530;51.448;7.238;2023-08-12T09:34:45;6.77;;;6.27;;
1082;SDS011;530;51.448;7.238;2023-08-12T09:37:13;5.37;;;4.97;;
1082;SDS011;530;51.448;7.238;2023-08-12T09:39:39;7.87;;;5.20;;
1082;SDS011;530;51.448;7.238;2023-08-12T09:42:05;6.17;;;5.67;;
1082;SDS011;530;51.448;7.238;2023-08-12T09:44:34;5.80;;;5.30;;
1082;SDS011;530;51.448;7.238;2023-08-12T09:47:00;5.07;;;4.67;;
1082;SDS011;530;51.448;7.238;2023-08-12T09:49:26;5.67;;;5.17;;
1082;SDS011;530;51.448;7.238;2023-08-12T09:51:53;5.13;;;4.63;;
1082;SDS011;530;51.448;7.238;2023-08-12T09:54:18;4.90;;;4.50;;
1082;SDS011;530;51.448;7.238;2023-08-12T09:56:46;4.60;;;4.30;;
1082;SDS011;530;51.448;7.238;2023-08-12T09:59:15;4.10;;;3.80;;
1082;SDS011;530;51.448;7.238;2023-08-12T10:01:45;4.00;;;3.70;;
1082;SDS011;530;51.448;7.238;2023-08-12T10:04:11;4.67;;;4.27;;
1082;SDS011;530;51.448;7.238;2023-08-12T10:06:40;3.63;;;3.33;;
1082;SDS011;530;51.448;7.238;2023-08-12T10:09:06;3.50;;;3.20;;
1082;SDS011;530;51.448;7.238;2023-08-12T10:11:36;4.17;;;3.10;;
1082;SDS011;530;51.448;7.238;2023-08-12T10:14:05;3.20;;;2.90;;
1082;SDS011;530;51.448;7.238;2023-08-12T10:16:33;2.67;;;2.47;;
1082;SDS011;530;51.448;7.238;2023-08-12T10:19:00;3.07;;;2.77;;
1082;SDS011;530;51.448;7.238;2023-08-12T10:21:27;3.07;;;2.83;;
1082;SDS011;530;51.448;7.238;2023-08-12T10:23:53;2.70;;;2.50;;
1082;SDS011;530;51.448;7.238;2023-08-12T10:26:21;4.13;;;2.90;;
1082;SDS011;530;51.448;7.238;2023-08-12T10:28:48;2.63;;;2.43;;
1082;SDS011;530;51.448;7.238;2023-08-12T10:31:14;2.80;;;2.60;;
1082;SDS011;530;51.448;7.238;2023-08-12T10:33:40;3.63;;;2.50;;
1082;SDS011;530;51.448;7.238;2023-08-12T10:36:06;2.30;;;2.10;;
1082;SDS011;530;51.448;7.238;2023-08-12T10:38:33;4.23;;;2.27;;
1082;SDS011;530;51.448;7.238;2023-08-12T10:41:18;2.47;;;2.27;;
1082;SDS011;530;51.448;7.238;2023-08-12T10:46:33;2.83;;;2.30;;
1082;SDS011;530;51.448;7.238;2023-08-12T10:54:18;3.23;;;2.20;;
1082;SDS011;530;51.448;7.238;2023-08-12T11:02:27;3.00;;;2.00;;
1082;SDS011;530;51.448;7.238;2023-08-12T11:04:55;2.93;;;1.90;;
1082;SDS011;530;51.448;7.238;2023-08-12T11:07:42;2.97;;;2.27;;
1082;SDS011;530;51.448;7.238;2023-08-12T11:18:01;2.20;;;1.60;;
1082;SDS011;530;51.448;7.238;2023-08-12T11:20:28;3.87;;;2.00;;
1082;SDS011;530;51.448;7.238;2023-08-12T11:22:54;2.00;;;1.90;;
1082;SDS011;530;51.448;7.238;2023-08-12T11:25:21;1.83;;;1.70;;
1082;SDS011;530;51.448;7.238;2023-08-12T11:27:47;7.87;;;2.67;;
1082;SDS011;530;51.448;7.238;2023-08-12T11:30:14;2.63;;;2.10;;
1082;SDS011;530;51.448;7.238;2023-08-12T11:32:46;5.70;;;2.10;;
1082;SDS011;530;51.448;7.238;2023-08-12T11:35:13;2.30;;;2.10;;
1082;SDS011;530;51.448;7.238;2023-08-12T11:37:40;1.67;;;1.50;;
1082;SDS011;530;51.448;7.238;2023-08-12T11:40:08;1.93;;;1.10;;
1082;SDS011;530;51.448;7.238;2023-08-12T11:42:35;1.30;;;1.20;;
1082;SDS011;530;51.448;7.238;2023-08-12T11:45:06;1.67;;;1.23;;
1082;SDS011;530;51.448;7.238;2023-08-12T11:47:33;1.70;;;1.03;;
1082;SDS011;530;51.448;7.238;2023-08-12T11:50:03;1.20;;;0.97;;
1082;SDS011;530;51.448;7.238;2023-08-12T11:52:32;1.23;;;0.90;;
1082;SDS011;530;51.448;7.238;2023-08-12T11:54:58;0.97;;;0.87;;
1082;SDS011;530;51.448;7.238;2023-08-12T11:57:24;1.37;;;1.10;;
1082;SDS011;530;51.448;7.238;2023-08-12T11:59:51;1.60;;;1.10;;
1082;SDS011;530;51.448;7.238;2023-08-12T12:02:18;1.20;;;1.10;;
1082;SDS011;530;51.448;7.238;2023-08-12T12:04:44;0.93;;;0.90;;
1082;SDS011;530;51.448;7.238;2023-08-12T12:09:53;1.53;;;1.13;;
1082;SDS011;530;51.448;7.238;2023-08-12T12:12:25;1.43;;;1.20;;
1082;SDS011;530;51.448;7.238;2023-08-12T12:14:51;1.73;;;1.10;;
1082;SDS011;530;51.448;7.238;2023-08-12T12:17:21;1.30;;;1.10;;
1082;SDS011;530;51.448;7.238;2023-08-12T12:19:54;1.20;;;1.10;;
1082;SDS011;530;51.448;7.238;2023-08-12T12:22:26;1.30;;;1.20;;
1082;SDS011;530;51.448;7.238;2023-08-12T12:24:57;1.10;;;1.00;;
1082;SDS011;530;51.448;7.238;2023-08-12T12:27:24;1.60;;;1.50;;
1082;SDS011;530;51.448;7.238;2023-08-12T12:29:50;1.70;;;1.60;;
1082;SDS011;530;51.448;7.238;2023-08-12T12:32:19;5.10;;;1.50;;
1082;SDS011;530;51.448;7.238;2023-08-12T12:34:45;1.30;;;1.20;;
1082;SDS011;530;51.448;7.238;2023-08-12T12:37:12;1.53;;;1.43;;
1082;SDS011;530;51.448;7.238;2023-08-12T12:39:38;1.90;;;1.77;;
1082;SDS011;530;51.448;7.238;2023-08-12T12:42:05;1.57;;;1.47;;
1082;SDS011;530;51.448;7.238;2023-08-12T12:44:30;1.40;;;1.30;;
1082;SDS011;530;51.448;7.238;2023-08-12T12:46:56;1.60;;;1.47;;
1082;SDS011;530;51.448;7.238;2023-08-12T12:49:22;1.80;;;1.70;;
1082;SDS011;530;51.448;7.238;2023-08-12T12:51:48;2.10;;;1.37;;
1082;SDS011;530;51.448;7.238;2023-08-12T12:54:14;1.80;;;1.70;;
1082;SDS011;530;51.448;7.238;2023-08-12T12:56:40;1.80;;;1.70;;
1082;SDS011;530;51.448;7.238;2023-08-12T12:59:05;1.57;;;1.47;;
1082;SDS011;530;51.448;7.238;2023-08-12T13:01:31;2.93;;;1.47;;
1082;SDS011;530;51.448;7.238;2023-08-12T13:03:58;2.17;;;1.00;;
1082;SDS011;530;51.448;7.238;2023-08-12T13:06:23;3.23;;;1.50;;
1082;SDS011;530;51.448;7.238;2023-08-12T13:08:49;2.10;;;1.70;;
1082;SDS011;530;51.448;7.238;2023-08-12T13:11:15;2.20;;;2.00;;
1082;SDS011;530;51.448;7.238;2023-08-12T13:13:41;2.33;;;1.90;;
1082;SDS011;530;51.448;7.238;2023-08-12T13:16:06;2.67;;;2.20;;
1082;SDS011;530;51.448;7.238;2023-08-12T13:18:33;2.47;;;2.27;;
1082;SDS011;530;51.448;7.238;2023-08-12T13:20:59;2.20;;;2.03;;
1082;SDS011;530;51.448;7.238;2023-08-12T13:23:25;3.20;;;2.90;;
1082;SDS011;530;51.448;7.238;2023-08-12T13:25:51;3.67;;;3.07;;
1082;SDS011;530;51.448;7.238;2023-08-12T13:28:17;2.93;;;2.73;;
1082;SDS011;530;51.448;7.238;2023-08-12T13:30:43;3.53;;;3.23;;
1082;SDS011;530;51.448;7.238;2023-08-12T13:33:10;3.33;;;3.03;;
1082;SDS011;530;51.448;7.238;2023-08-12T13:35:35;3.30;;;3.00;;
1082;SDS011;530;51.448;7.238;2023-08-12T13:38:01;3.80;;;3.50;;
1082;SDS011;530;51.448;7.238;2023-08-12T13:40:27;3.70;;;3.40;;
1082;SDS011;530;51.448;7.238;2023-08-12T13:42:53;3.60;;;3.30;;
1082;SDS011;530;51.448;7.238;2023-08-12T13:45:18;4.60;;;4.20;;
1082;SDS011;530;51.448;7.238;2023-08-12T13:47:44;3.90;;;3.60;;
1082;SDS011;530;51.448;7.238;2023-08-12T13:50:10;4.40;;;4.00;;
1082;SDS011;530;51.448;7.238;2023-08-12T13:52:36;4.90;;;4.50;;
1082;SDS011;530;51.448;7.238;2023-08-12T13:55:02;4.90;;;4.50;;
1082;SDS011;530;51.448;7.238;2023-08-12T13:57:28;5.70;;;5.20;;
1082;SDS011;530;51.448;7.238;2023-08-12T13:59:54;7.67;;;7.07;;
1082;SDS011;530;51.448;7.238;2023-08-12T14:02:20;7.70;;;7.00;;
1082;SDS011;530;51.448;7.238;2023-08-12T14:04:46;10.50;;;9.50;;
1082;SDS011;530;51.448;7.238;2023-08-12T14:07:11;9.70;;;8.90;;
1082;SDS011;530;51.448;7.238;2023-08-12T14:09:37;11.17;;;10.17;;
1082;SDS011;530;51.448;7.238;2023-08-12T14:12:03;11.77;;;10.67;;
1082;SDS011;530;51.448;7.238;2023-08-12T14:14:29;14.00;;;12.67;;
1082;SDS011;530;51.448;7.238;2023-08-12T14:16:55;12.27;;;11.17;;
1082;SDS011;530;51.448;7.238;2023-08-12T14:19:21;11.50;;;10.50;;
1082;SDS011;530;51.448;7.238;2023-08-12T14:21:47;11.10;;;10.07;;
1082;SDS011;530;51.448;7.238;2023-08-12T14:24:12;8.30;;;7.60;;
1082;SDS011;530;51.448;7.238;2023-08-12T14:26:39;5.80;;;5.30;;
1082;SDS011;530;51.448;7.238;2023-08-12T14:29:05;5.43;;;4.93;;
1082;SDS011;530;51.448;7.238;2023-08-12T14:31:31;4.87;;;4.47;;
1082;SDS011;530;51.448;7.238;2023-08-12T14:33:58;5.60;;;4.93;;
1082;SDS011;530;51.448;7.238;2023-08-12T14:36:23;7.00;;;5.57;;
1082;SDS011;530;51.448;7.238;2023-08-12T14:38:52;5.73;;;5.23;;
1082;SDS011;530;51.448;7.238;2023-08-12T14:41:18;5.70;;;5.20;;
1082;SDS011;530;51.448;7.238;2023-08-12T14:43:44;5.43;;;5.03;;
1082;SDS011;530;51.448;7.238;2023-08-12T14:46:09;5.97;;;5.47;;
1082;SDS011;530;51.448;7.238;2023-08-12T14:48:35;5.70;;;5.07;;
1082;SDS011;530;51.448;7.238;2023-08-12T14:51:01;4.80;;;4.40;;
1082;SDS011;530;51.448;7.238;2023-08-12T14:53:27;4.83;;;4.43;;
1082;SDS011;530;51.448;7.238;2023-08-12T14:55:52;6.13;;;5.13;;
1082;SDS011;530;51.448;7.238;2023-08-12T14:58:18;5.53;;;5.03;;
1082;SDS011;530;51.448;7.238;2023-08-12T15:00:44;5.20;;;4.70;;
1082;SDS011;530;51.448;7.238;2023-08-12T15:03:11;6.17;;;5.57;;
1082;SDS011;530;51.448;7.238;2023-08-12T15:05:39;6.83;;;6.10;;
1082;SDS011;530;51.448;7.238;2023-08-12T15:08:05;6.90;;;6.30;;
1082;SDS011;530;51.448;7.238;2023-08-12T15:10:31;7.77;;;7.07;;
1082;SDS011;530;51.448;7.238;2023-08-12T15:12:58;7.87;;;6.90;;
1082;SDS011;530;51.448;7.238;2023-08-12T15:15:23;11.10;;;10.20;;
1082;SDS011;530;51.448;7.238;2023-08-12T15:17:49;11.10;;;10.23;;
1082;SDS011;530;51.448;7.238;2023-08-12T15:20:15;11.10;;;10.10;;
1082;SDS011;530;51.448;7.238;2023-08-12T15:22:41;11.97;;;10.93;;
1082;SDS011;530;51.448;7.238;2023-08-12T15:25:06;11.70;;;10.57;;
1082;SDS011;530;51.448;7.238;2023-08-12T15:27:33;9.47;;;8.70;;
1082;SDS011;530;51.448;7.238;2023-08-12T15:29:59;9.50;;;8.70;;
1082;SDS011;530;51.448;7.238;2023-08-12T15:32:25;8.90;;;8.00;;
1082;SDS011;530;51.448;7.238;2023-08-12T15:34:51;8.63;;;7.83;;
1082;SDS011;530;51.448;7.238;2023-08-12T15:37:17;8.83;;;8.07;;
1082;SDS011;530;51.448;7.238;2023-08-12T15:39:43;7.93;;;7.23;;